createdAt,value
2022-08-21T00:01:29.324Z,99.90
2022-08-21T00:04:31.753Z,99.90
2022-08-21T00:07:33.982Z,99.90
2022-08-21T00:10:35.149Z,99.90
2022-08-21T00:13:37.720Z,99.90
2022-08-21T00:16:39.746Z,99.90
2022-08-21T00:19:41.235Z,99.90
2022-08-21T00:22:43.485Z,99.90
2022-08-21T00:25:45.727Z,99.90
2022-08-21T00:28:50.117Z,99.90
2022-08-21T00:31:51.267Z,99.90
2022-08-21T00:34:53.050Z,99.90
2022-08-21T00:37:54.604Z,99.90
2022-08-21T00:41:00.340Z,99.90
2022-08-21T00:44:21.025Z,99.90
2022-08-21T00:47:22.241Z,99.90
2022-08-21T00:50:29.259Z,99.90
2022-08-21T00:53:31.853Z,99.90
2022-08-21T00:56:34.166Z,99.90
2022-08-21T00:59:41.333Z,99.90
2022-08-21T01:02:42.821Z,99.90
2022-08-21T01:05:46.894Z,99.90
2022-08-21T01:08:48.423Z,99.90
2022-08-21T01:11:49.411Z,99.90
2022-08-21T01:14:50.615Z,99.90
2022-08-21T01:17:52.684Z,99.90
2022-08-21T01:21:27.886Z,99.90
2022-08-21T01:24:30.224Z,99.90
2022-08-21T01:27:31.487Z,99.90
2022-08-21T01:30:37.502Z,99.90
2022-08-21T01:33:38.957Z,99.90
2022-08-21T01:36:40.386Z,99.90
2022-08-21T01:39:44.017Z,99.90
2022-08-21T01:42:47.058Z,99.90
2022-08-21T01:45:47.980Z,99.90
2022-08-21T01:48:49.695Z,99.90
2022-08-21T01:51:50.872Z,99.90
2022-08-21T01:54:55.521Z,99.90
2022-08-21T01:57:59.972Z,99.90
2022-08-21T02:01:02.737Z,99.90
2022-08-21T02:04:04.563Z,99.90
2022-08-21T02:07:08.379Z,99.90
2022-08-21T02:10:20.305Z,99.90
2022-08-21T02:13:21.832Z,99.90
2022-08-21T02:16:23.292Z,99.90
2022-08-21T02:19:24.621Z,99.90
2022-08-21T02:22:25.637Z,99.90
2022-08-21T02:25:28.978Z,99.90
2022-08-21T02:28:30.894Z,99.90
2022-08-21T02:31:32.606Z,99.90
2022-08-21T02:34:33.338Z,99.90
2022-08-21T02:37:34.964Z,99.90
2022-08-21T02:40:40.241Z,99.90
2022-08-21T02:43:45.706Z,99.90
2022-08-21T02:46:46.579Z,99.90
2022-08-21T02:49:47.224Z,99.90
2022-08-21T02:52:51.802Z,99.90
2022-08-21T02:56:00.246Z,99.90
2022-08-21T02:59:01.342Z,99.90
2022-08-21T03:02:02.520Z,99.90
2022-08-21T03:05:05.704Z,99.90
2022-08-21T03:08:12.998Z,99.90
2022-08-21T03:11:16.323Z,99.90
2022-08-21T03:14:17.476Z,99.90
2022-08-21T03:17:18.363Z,99.90
2022-08-21T03:20:32.159Z,99.90
2022-08-21T03:23:33.827Z,99.90
2022-08-21T03:26:35.696Z,99.90
2022-08-21T03:29:36.543Z,99.90
2022-08-21T03:32:37.428Z,99.90
2022-08-21T03:35:38.685Z,99.90
2022-08-21T03:38:40.540Z,99.90
2022-08-21T03:41:41.858Z,99.90
2022-08-21T03:44:43.114Z,99.90
2022-08-21T03:48:01.880Z,99.90
2022-08-21T03:51:04.083Z,99.90
2022-08-21T03:54:05.148Z,99.90
2022-08-21T03:57:06.285Z,99.90
2022-08-21T04:00:10.149Z,99.90
2022-08-21T04:03:11.039Z,99.90
2022-08-21T04:06:12.412Z,99.90
2022-08-21T04:09:13.612Z,99.90
2022-08-21T04:12:14.693Z,99.90
2022-08-21T04:15:15.854Z,99.90
2022-08-21T04:18:17.981Z,99.90
2022-08-21T04:21:18.981Z,99.90
2022-08-21T04:24:25.190Z,99.90
2022-08-21T04:27:30.859Z,99.90
2022-08-21T04:30:31.934Z,99.90
2022-08-21T04:33:32.834Z,99.90
2022-08-21T04:36:34.818Z,99.90
2022-08-21T04:39:36.042Z,99.90
2022-08-21T04:42:50.727Z,99.90
2022-08-21T04:45:53.629Z,99.90
2022-08-21T04:48:55.544Z,99.90
2022-08-21T04:51:56.784Z,99.90
2022-08-21T04:54:57.738Z,99.90
2022-08-21T04:57:59.226Z,99.90
2022-08-21T05:01:03.286Z,99.90
2022-08-21T05:04:09.074Z,99.90
2022-08-21T05:07:42.368Z,99.90
2022-08-21T05:10:45.676Z,99.90
2022-08-21T05:13:54.990Z,99.90
2022-08-21T05:16:59.913Z,99.90
2022-08-21T05:20:00.862Z,99.90
2022-08-21T05:23:02.976Z,99.90
2022-08-21T05:26:05.433Z,99.90
2022-08-21T05:29:11.796Z,99.90
2022-08-21T05:32:15.919Z,99.90
2022-08-21T05:35:17.009Z,99.90
2022-08-21T05:38:18.558Z,99.90
2022-08-21T05:41:19.840Z,99.90
2022-08-21T05:44:20.869Z,99.90
2022-08-21T05:47:23.392Z,99.90
2022-08-21T05:50:24.847Z,99.90
2022-08-21T05:53:30.668Z,99.90
2022-08-21T05:56:31.468Z,99.90
2022-08-21T05:59:32.787Z,99.90
2022-08-21T06:02:33.726Z,99.90
2022-08-21T06:05:36.691Z,99.90
2022-08-21T06:08:38.767Z,99.90
2022-08-21T06:11:39.441Z,99.90
2022-08-21T06:14:43.078Z,99.90
2022-08-21T06:17:44.076Z,99.90
2022-08-21T06:20:45.562Z,99.90
2022-08-21T06:23:46.827Z,99.90
2022-08-21T06:26:47.628Z,99.90
2022-08-21T06:29:48.938Z,99.90
2022-08-21T06:32:50.098Z,99.90
2022-08-21T06:35:51.504Z,99.90
2022-08-21T06:38:52.289Z,99.90
2022-08-21T06:41:53.896Z,99.90
2022-08-21T06:45:02.133Z,99.90
2022-08-21T06:48:03.820Z,99.90
2022-08-21T06:51:05.751Z,99.90
2022-08-21T06:54:07.046Z,99.90
2022-08-21T06:57:08.176Z,99.90
2022-08-21T07:00:11.039Z,99.90
2022-08-21T07:03:31.491Z,99.90
2022-08-21T07:06:34.001Z,99.90
2022-08-21T07:09:35.050Z,99.90
2022-08-21T07:12:36.370Z,99.90
2022-08-21T07:15:37.672Z,99.90
2022-08-21T07:18:38.991Z,99.90
2022-08-21T07:21:40.209Z,99.90
2022-08-21T07:24:41.076Z,99.90
2022-08-21T07:27:42.159Z,99.90
2022-08-21T07:30:43.392Z,99.90
2022-08-21T07:33:45.968Z,99.90
2022-08-21T07:36:47.682Z,99.90
2022-08-21T07:39:50.622Z,99.90
2022-08-21T07:42:52.936Z,99.90
2022-08-21T07:45:55.097Z,99.90
2022-08-21T07:48:56.194Z,99.90
2022-08-21T07:51:57.844Z,99.90
2022-08-21T07:55:01.652Z,99.90
2022-08-21T07:58:05.213Z,99.90
2022-08-21T08:01:07.872Z,99.90
2022-08-21T08:04:08.950Z,99.90
2022-08-21T08:07:10.245Z,99.90
2022-08-21T08:10:12.730Z,99.90
2022-08-21T08:13:13.794Z,99.90
2022-08-21T08:16:15.090Z,99.90
2022-08-21T08:19:16.165Z,99.90
2022-08-21T08:22:20.463Z,99.90
2022-08-21T08:25:24.073Z,99.90
2022-08-21T08:28:26.269Z,99.90
2022-08-21T08:31:27.377Z,99.90
2022-08-21T08:34:28.640Z,99.90
2022-08-21T08:37:34.260Z,99.90
2022-08-21T08:40:50.675Z,99.90
2022-08-21T08:44:01.175Z,99.90
2022-08-21T08:47:03.310Z,99.90
2022-08-21T08:50:04.681Z,99.90
2022-08-21T08:53:13.564Z,99.90
2022-08-21T08:56:14.935Z,99.90
2022-08-21T08:59:31.765Z,99.90
2022-08-21T09:02:34.610Z,99.90
2022-08-21T09:06:26.198Z,99.90
2022-08-21T09:09:53.788Z,99.90
2022-08-21T09:13:21.848Z,99.90
2022-08-21T09:16:51.506Z,99.90
2022-08-21T09:20:33.209Z,99.90
2022-08-21T09:23:44.950Z,99.90
2022-08-21T09:27:07.774Z,99.90
2022-08-21T09:30:11.228Z,99.90
2022-08-21T09:33:17.085Z,99.90
2022-08-21T09:36:35.388Z,99.90
2022-08-21T09:39:45.563Z,99.90
2022-08-21T09:43:18.273Z,99.90
2022-08-21T09:46:26.353Z,99.90
2022-08-21T09:49:38.546Z,99.90
2022-08-21T09:52:49.943Z,99.90
2022-08-21T09:56:24.329Z,99.90
2022-08-21T09:59:37.046Z,97.50
2022-08-21T10:02:38.237Z,92.20
2022-08-21T10:05:41.458Z,91.50
2022-08-21T10:08:42.660Z,92.50
2022-08-21T10:11:59.680Z,83.30
2022-08-21T10:15:24.883Z,84.80
2022-08-21T10:19:15.606Z,83.00
2022-08-21T10:23:22.670Z,81.40
2022-08-21T10:26:58.020Z,80.20
2022-08-21T10:30:12.550Z,77.70
2022-08-21T10:34:22.151Z,75.80
2022-08-21T10:37:42.548Z,78.60
2022-08-21T10:41:22.610Z,77.70
2022-08-21T10:44:55.147Z,72.50
2022-08-21T10:48:05.068Z,69.60
2022-08-21T10:51:29.063Z,69.30
2022-08-21T10:55:00.636Z,67.10
2022-08-21T10:58:26.778Z,69.90
2022-08-21T11:01:41.302Z,72.80
2022-08-21T11:04:56.747Z,68.20
2022-08-21T11:08:23.692Z,66.30
2022-08-21T11:11:53.882Z,68.50
2022-08-21T11:15:32.834Z,67.90
2022-08-21T11:18:54.962Z,65.40
2022-08-21T11:22:18.573Z,67.90
2022-08-21T11:25:36.485Z,65.30
2022-08-21T11:29:24.787Z,60.50
2022-08-21T11:32:25.447Z,60.70
2022-08-21T11:36:05.171Z,61.60
2022-08-21T11:39:22.424Z,62.20
2022-08-21T11:42:51.607Z,66.50
2022-08-21T11:46:01.069Z,67.10
2022-08-21T11:49:41.535Z,64.50
2022-08-21T11:53:02.996Z,63.40
2022-08-21T11:56:15.997Z,66.30
2022-08-21T11:59:31.190Z,65.90
2022-08-21T12:02:42.386Z,65.70
2022-08-21T12:05:55.979Z,64.30
2022-08-21T12:09:09.718Z,65.50
2022-08-21T12:12:35.178Z,64.20
2022-08-21T12:15:36.491Z,64.80
2022-08-21T12:18:39.185Z,63.50
2022-08-21T12:21:58.344Z,64.00
2022-08-21T12:25:21.548Z,66.20
2022-08-21T12:28:25.764Z,66.60
2022-08-21T12:31:29.728Z,68.70
2022-08-21T12:34:39.081Z,67.70
2022-08-21T12:37:57.901Z,65.20
2022-08-21T12:41:07.270Z,67.90
2022-08-21T12:44:22.483Z,66.20
2022-08-21T12:47:37.273Z,64.30
2022-08-21T12:50:52.565Z,64.50
2022-08-21T12:53:58.309Z,64.50
2022-08-21T12:57:02.838Z,63.10
2022-08-21T13:00:13.047Z,65.20
2022-08-21T13:03:17.196Z,64.40
2022-08-21T13:06:21.528Z,64.80
2022-08-21T13:09:30.807Z,62.40
2022-08-21T13:12:34.130Z,64.90
2022-08-21T13:15:39.062Z,64.50
2022-08-21T13:19:06.569Z,63.20
2022-08-21T13:22:34.220Z,61.90
2022-08-21T13:25:38.712Z,63.60
2022-08-21T13:28:40.532Z,64.20
2022-08-21T13:31:53.928Z,61.30
2022-08-21T13:34:54.910Z,61.30
2022-08-21T13:37:57.692Z,60.90
2022-08-21T13:41:22.746Z,62.10
2022-08-21T13:44:35.421Z,62.50
2022-08-21T13:47:36.754Z,64.10
2022-08-21T13:50:40.428Z,59.10
2022-08-21T13:53:45.831Z,60.40
2022-08-21T13:56:47.913Z,56.50
2022-08-21T13:59:50.440Z,57.80
2022-08-21T14:03:00.783Z,56.40
2022-08-21T14:06:03.026Z,55.70
2022-08-21T14:09:22.920Z,57.50
2022-08-21T14:12:38.319Z,58.10
2022-08-21T14:15:40.177Z,57.10
2022-08-21T14:19:11.875Z,56.80
2022-08-21T14:22:44.960Z,55.20
2022-08-21T14:25:47.051Z,56.20
2022-08-21T14:28:48.225Z,56.40
2022-08-21T14:31:59.369Z,55.60
2022-08-21T14:35:00.638Z,56.80
2022-08-21T14:38:02.078Z,56.80
2022-08-21T14:41:22.645Z,56.90
2022-08-21T14:44:26.569Z,56.80
2022-08-21T14:47:27.605Z,55.90
2022-08-21T14:50:28.897Z,57.20
2022-08-21T14:53:30.144Z,58.00
2022-08-21T14:56:31.980Z,57.60
2022-08-21T14:59:34.255Z,57.20
2022-08-21T15:02:35.175Z,57.80
2022-08-21T15:05:35.907Z,57.00
2022-08-21T15:08:36.744Z,56.60
2022-08-21T15:11:41.990Z,57.60
2022-08-21T15:14:44.643Z,54.90
2022-08-21T15:17:48.298Z,55.60
2022-08-21T15:20:50.800Z,54.80
2022-08-21T15:23:51.708Z,58.00
2022-08-21T15:26:56.050Z,57.40
2022-08-21T15:29:57.337Z,58.30
2022-08-21T15:32:59.000Z,57.70
2022-08-21T15:36:00.161Z,57.20
2022-08-21T15:39:01.008Z,57.80
2022-08-21T15:42:10.372Z,59.60
2022-08-21T15:45:14.311Z,58.50
2022-08-21T15:48:15.420Z,58.80
2022-08-21T15:51:18.189Z,57.70
2022-08-21T15:54:19.441Z,59.50
2022-08-21T15:57:25.449Z,58.10
2022-08-21T16:00:27.053Z,59.00
2022-08-21T16:03:29.204Z,57.70
2022-08-21T16:06:37.494Z,58.90
2022-08-21T16:09:46.268Z,59.80
2022-08-21T16:13:16.244Z,59.00
2022-08-21T16:16:23.535Z,58.80
2022-08-21T16:19:25.022Z,58.50
2022-08-21T16:22:26.065Z,59.00
2022-08-21T16:25:44.859Z,60.00
2022-08-21T16:28:51.678Z,60.00
2022-08-21T16:31:53.657Z,59.90
2022-08-21T16:34:55.182Z,60.50
2022-08-21T16:37:56.035Z,59.10
2022-08-21T16:40:57.864Z,60.00
2022-08-21T16:44:01.315Z,60.00
2022-08-21T16:47:02.795Z,59.00
2022-08-21T16:50:05.587Z,58.20
2022-08-21T16:53:07.278Z,58.40
2022-08-21T16:56:10.638Z,58.00
2022-08-21T16:59:13.090Z,59.40
2022-08-21T17:02:38.452Z,61.20
2022-08-21T17:05:39.531Z,62.90
2022-08-21T17:08:40.826Z,62.20
2022-08-21T17:11:46.492Z,66.20
2022-08-21T17:14:49.454Z,67.30
2022-08-21T17:17:51.923Z,68.00
2022-08-21T17:20:53.760Z,70.20
2022-08-21T17:23:54.582Z,72.60
2022-08-21T17:26:57.606Z,73.80
2022-08-21T17:29:58.716Z,74.70
2022-08-21T17:33:01.242Z,76.10
2022-08-21T17:36:03.376Z,80.10
2022-08-21T17:39:05.318Z,82.20
2022-08-21T17:42:13.748Z,84.10
2022-08-21T17:45:19.074Z,87.50
2022-08-21T17:48:20.139Z,89.50
2022-08-21T17:51:26.344Z,89.70
2022-08-21T17:54:28.489Z,88.40
2022-08-21T17:57:35.463Z,92.70
2022-08-21T18:00:36.931Z,91.60
2022-08-21T18:03:38.492Z,91.30
2022-08-21T18:06:40.270Z,92.40
2022-08-21T18:09:41.674Z,92.90
2022-08-21T18:12:45.563Z,93.90
2022-08-21T18:15:51.548Z,95.90
2022-08-21T18:18:52.210Z,97.80
2022-08-21T18:21:55.182Z,98.90
2022-08-21T18:24:56.365Z,98.60
2022-08-21T18:28:08.477Z,98.30
2022-08-21T18:31:13.007Z,99.90
2022-08-21T18:34:35.025Z,99.90
2022-08-21T18:37:36.998Z,98.60
2022-08-21T18:40:46.829Z,98.70
2022-08-21T18:43:48.264Z,99.90
2022-08-21T18:46:58.043Z,99.90
2022-08-21T18:49:59.170Z,99.90
2022-08-21T18:53:00.194Z,99.90
2022-08-21T18:56:05.360Z,99.90
2022-08-21T18:59:06.935Z,99.90
2022-08-21T19:02:08.612Z,99.90
2022-08-21T19:05:14.084Z,99.90
2022-08-21T19:08:20.649Z,99.90
2022-08-21T19:11:25.233Z,99.90
2022-08-21T19:14:26.886Z,99.90
2022-08-21T19:17:31.774Z,99.90
2022-08-21T19:20:37.018Z,99.90
2022-08-21T19:23:38.338Z,99.90
2022-08-21T19:26:43.860Z,99.90
2022-08-21T19:29:45.153Z,99.90
2022-08-21T19:32:48.054Z,99.90
2022-08-21T19:35:52.494Z,99.90
2022-08-21T19:38:53.877Z,99.90
2022-08-21T19:41:58.967Z,99.90
2022-08-21T19:45:00.888Z,99.90
2022-08-21T19:48:02.199Z,99.90
2022-08-21T19:51:05.311Z,99.90
2022-08-21T19:54:19.903Z,99.90
2022-08-21T19:57:20.781Z,99.90
2022-08-21T20:00:22.542Z,99.90
2022-08-21T20:03:25.376Z,99.90
2022-08-21T20:06:27.099Z,99.90
2022-08-21T20:09:28.262Z,99.90
2022-08-21T20:12:29.206Z,99.90
2022-08-21T20:15:30.827Z,99.90
2022-08-21T20:18:34.731Z,99.90
2022-08-21T20:21:44.380Z,99.90
2022-08-21T20:24:46.785Z,99.90
2022-08-21T20:27:48.035Z,99.90
2022-08-21T20:30:48.835Z,99.90
2022-08-21T20:33:51.907Z,99.90
2022-08-21T20:36:53.427Z,99.90
2022-08-21T20:39:54.616Z,99.90
2022-08-21T20:42:59.547Z,99.90
2022-08-21T20:46:01.330Z,99.90
2022-08-21T20:49:02.723Z,99.90
2022-08-21T20:52:05.646Z,99.90
2022-08-21T20:55:19.697Z,99.90
2022-08-21T20:58:38.791Z,99.90
2022-08-21T21:01:40.164Z,99.90
2022-08-21T21:05:01.363Z,99.90
2022-08-21T21:08:39.168Z,99.90
2022-08-21T21:11:58.494Z,99.90
2022-08-21T21:15:11.657Z,99.90
2022-08-21T21:18:22.688Z,99.90
2022-08-21T21:21:35.779Z,99.90
2022-08-21T21:24:52.383Z,99.90
2022-08-21T21:28:07.737Z,99.90
2022-08-21T21:31:14.614Z,99.90
2022-08-21T21:34:17.073Z,99.90
2022-08-21T21:37:39.445Z,99.90
2022-08-21T21:40:58.642Z,99.90
2022-08-21T21:44:15.566Z,99.90
2022-08-21T21:47:47.151Z,99.90
2022-08-21T21:51:02.034Z,99.90
2022-08-21T21:54:59.005Z,99.90
2022-08-21T21:58:06.379Z,99.90
2022-08-21T22:01:38.123Z,99.90
2022-08-21T22:05:29.112Z,99.90
2022-08-21T22:09:12.437Z,99.90
2022-08-21T22:12:53.919Z,99.90
2022-08-21T22:15:56.385Z,99.90
2022-08-21T22:19:20.605Z,99.90
2022-08-21T22:22:26.882Z,99.90
2022-08-21T22:25:41.830Z,99.90
2022-08-21T22:28:48.911Z,99.90
2022-08-21T22:32:08.415Z,99.90
2022-08-21T22:35:26.128Z,99.90
2022-08-21T22:38:27.601Z,99.90
2022-08-21T22:41:32.182Z,99.90
2022-08-21T22:48:22.591Z,99.90
2022-08-21T22:51:36.584Z,99.90
2022-08-21T22:54:45.194Z,99.90
2022-08-21T22:57:46.839Z,99.90
2022-08-21T23:01:21.874Z,99.90
2022-08-21T23:04:25.969Z,99.90
2022-08-21T23:07:43.751Z,99.90
2022-08-21T23:10:56.583Z,99.90
2022-08-21T23:13:57.542Z,99.90
2022-08-21T23:17:15.957Z,99.90
2022-08-21T23:20:56.080Z,99.90
2022-08-21T23:24:21.960Z,99.90
2022-08-21T23:31:22.754Z,99.90
2022-08-21T23:34:35.352Z,99.90
2022-08-21T23:38:15.791Z,99.90
2022-08-21T23:41:42.900Z,99.90
2022-08-21T23:49:05.806Z,99.90
2022-08-21T23:52:20.039Z,99.90
2022-08-21T23:55:41.454Z,99.90
2022-08-21T23:58:51.363Z,99.90
